This is the latest recevied weather packets stored in our database for station/object DH8TOM-3. If no packets are shown the sender has not sent any weather packets the latest 10 day(s).
| Time | Temp. | Humidity | Pressure | Rain* | Wind** | Luminosity | Snow |
|---|---|---|---|---|---|---|---|
| 1777281807 | 16.67° C | 46% | 1023.2 hPa | 0 mm | - | - | - |
| 1777281506 | 16.67° C | 46% | 1023.2 hPa | 0 mm | - | - | - |
| 1777281205 | 16.67° C | 47% | 1023.3 hPa | 0 mm | - | - | - |
| 1777280904 | 16.67° C | 47% | 1023.3 hPa | 0 mm | - | - | - |
| 1777280602 | 16.11° C | 45% | 1023.3 hPa | 0 mm | - | - | - |
| 1777280301 | 16.11° C | 45% | 1023.3 hPa | 0 mm | - | - | - |
| 1777280000 | 15.56° C | 48% | 1023.3 hPa | 0 mm | - | - | - |
| 1777279700 | 15.56° C | 48% | 1023.3 hPa | 0 mm | - | - | - |
| 1777279098 | 15.56° C | 48% | 1023.4 hPa | 0 mm | - | - | - |
| 1777278797 | 15.56° C | 50% | 1023.4 hPa | 0 mm | - | - | - |
| 1777278496 | 15.56° C | 50% | 1023.4 hPa | 0 mm | - | - | - |
| 1777278195 | 15° C | 54% | 1023.4 hPa | 0 mm | - | - | - |
| 1777277894 | 15° C | 54% | 1023.4 hPa | 0 mm | - | - | - |
| 1777277593 | 15° C | 54% | 1023.4 hPa | 0 mm | - | - | - |
| 1777277293 | 15° C | 54% | 1023.4 hPa | 0 mm | - | - | - |
| 1777276991 | 13.89° C | 56% | 1023.3 hPa | 0 mm | - | - | - |
| 1777276389 | 13.33° C | 57% | 1023.4 hPa | 0 mm | - | - | - |
| 1777276087 | 13.33° C | 57% | 1023.4 hPa | 0 mm | - | - | - |
| 1777275486 | 12.22° C | 61% | 1023.4 hPa | 0 mm | - | - | - |
| 1777275185 | 11.11° C | 64% | 1023.3 hPa | 0 mm | - | - | - |
| 1777274884 | 11.11° C | 64% | 1023.3 hPa | 0 mm | - | - | - |
| 1777274582 | 9.44° C | 68% | 1023.3 hPa | 0 mm | - | - | - |
| 1777274282 | 9.44° C | 68% | 1023.3 hPa | 0 mm | - | - | - |
| 1777273981 | 8.33° C | 70% | 1023.3 hPa | 0 mm | - | - | - |
| 1777273680 | 8.33° C | 70% | 1023.3 hPa | 0 mm | - | - | - |
* Rain latest hour (hover to see other rain measurements)
** Current wind speed in m/s (hover to see current wind gust speed)